createdAt,value
2017-12-13T00:02:24.579Z,92.15
2017-12-13T00:04:50.346Z,92.11
2017-12-13T00:07:16.079Z,92.10
2017-12-13T00:09:41.820Z,92.17
2017-12-13T00:12:07.571Z,92.20
2017-12-13T00:14:33.304Z,92.09
2017-12-13T00:17:00.970Z,91.99
2017-12-13T00:19:26.747Z,91.86
2017-12-13T00:21:52.711Z,91.96
2017-12-13T00:24:18.443Z,92.03
2017-12-13T00:26:44.196Z,91.88
2017-12-13T00:29:09.936Z,91.82
2017-12-13T00:31:35.696Z,91.86
2017-12-13T00:34:01.909Z,91.77
2017-12-13T00:36:27.675Z,91.88
2017-12-13T00:38:53.406Z,91.69
2017-12-13T00:41:19.173Z,91.72
2017-12-13T00:43:45.977Z,91.65
2017-12-13T00:46:12.037Z,91.73
2017-12-13T00:48:37.766Z,91.65
2017-12-13T00:51:05.052Z,91.47
2017-12-13T00:53:30.984Z,91.47
2017-12-13T00:55:59.780Z,91.67
2017-12-13T00:58:26.811Z,91.51
2017-12-13T01:00:53.221Z,91.36
2017-12-13T01:03:19.691Z,91.50
2017-12-13T01:05:48.133Z,91.14
2017-12-13T01:08:14.769Z,91.19
2017-12-13T01:10:41.353Z,91.30
2017-12-13T01:13:08.858Z,90.98
2017-12-13T01:15:35.471Z,90.94
2017-12-13T01:18:04.653Z,91.23
2017-12-13T01:20:31.002Z,91.23
2017-12-13T01:23:00.236Z,91.41
2017-12-13T01:25:26.799Z,91.43
2017-12-13T01:27:53.322Z,91.31
2017-12-13T01:30:20.126Z,91.18
2017-12-13T01:32:47.474Z,90.99
2017-12-13T01:35:13.821Z,90.94
2017-12-13T01:37:41.908Z,91.08
2017-12-13T01:40:08.291Z,90.83
2017-12-13T01:42:35.032Z,91.11
2017-12-13T01:45:03.347Z,91.22
2017-12-13T01:47:30.222Z,90.98
2017-12-13T01:49:58.060Z,90.89
2017-12-13T01:52:25.364Z,91.05
2017-12-13T01:54:52.352Z,91.23
2017-12-13T01:57:21.696Z,90.93
2017-12-13T01:59:49.767Z,90.94
2017-12-13T02:02:16.067Z,91.15
2017-12-13T02:04:43.941Z,91.25
2017-12-13T02:07:13.385Z,91.31
2017-12-13T02:09:41.788Z,91.33
2017-12-13T02:12:09.122Z,91.44
2017-12-13T02:14:35.781Z,91.51
2017-12-13T02:17:02.625Z,91.46
2017-12-13T02:19:34.375Z,91.46
2017-12-13T02:22:02.714Z,91.30
2017-12-13T02:24:31.737Z,91.13
2017-12-13T02:27:01.241Z,91.30
2017-12-13T02:29:31.227Z,91.12
2017-12-13T02:32:04.629Z,91.13
2017-12-13T02:34:32.644Z,90.99
2017-12-13T02:37:02.248Z,91.02
2017-12-13T02:39:28.949Z,90.97
2017-12-13T02:41:57.837Z,90.93
2017-12-13T02:44:29.463Z,90.82
2017-12-13T02:46:57.863Z,90.84
2017-12-13T02:49:25.770Z,90.84
2017-12-13T02:51:55.110Z,90.74
2017-12-13T02:54:23.631Z,90.55
2017-12-13T02:56:52.257Z,90.74
2017-12-13T02:59:23.765Z,90.66
2017-12-13T03:01:51.749Z,90.62
2017-12-13T03:04:19.371Z,90.56
2017-12-13T03:06:46.809Z,90.53
2017-12-13T03:09:16.706Z,90.63
2017-12-13T03:11:44.554Z,90.73
2017-12-13T03:14:17.979Z,90.56
2017-12-13T03:16:46.684Z,90.73
2017-12-13T03:19:14.758Z,90.65
2017-12-13T03:21:42.989Z,90.57
2017-12-13T03:24:10.809Z,90.54
2017-12-13T03:26:39.417Z,90.46
2017-12-13T03:29:08.010Z,90.32
2017-12-13T03:31:33.809Z,90.41
2017-12-13T03:33:59.552Z,90.44
2017-12-13T03:36:25.291Z,90.58
2017-12-13T03:38:51.052Z,90.31
2017-12-13T03:41:16.782Z,90.33
2017-12-13T03:43:42.522Z,90.28
2017-12-13T03:46:09.941Z,90.05
2017-12-13T03:48:35.767Z,90.05
2017-12-13T03:51:01.501Z,90.18
2017-12-13T03:53:27.280Z,89.95
2017-12-13T03:55:53.019Z,90.00
2017-12-13T03:58:18.773Z,89.85
2017-12-13T04:00:44.508Z,89.86
2017-12-13T04:03:10.273Z,90.30
2017-12-13T04:05:36.006Z,89.99
2017-12-13T04:08:03.286Z,90.12
2017-12-13T04:10:30.000Z,90.03
2017-12-13T04:12:55.821Z,89.96
2017-12-13T04:15:21.572Z,90.06
2017-12-13T04:17:47.320Z,89.91
2017-12-13T04:20:13.071Z,89.94
2017-12-13T04:22:38.813Z,90.03
2017-12-13T04:25:04.582Z,89.95
2017-12-13T04:27:30.331Z,89.71
2017-12-13T04:29:56.080Z,89.86
2017-12-13T04:32:21.846Z,89.58
2017-12-13T04:34:47.601Z,89.97
2017-12-13T04:37:13.353Z,89.86
2017-12-13T04:39:39.170Z,89.91
2017-12-13T04:42:04.916Z,89.70
2017-12-13T04:44:30.675Z,89.79
2017-12-13T04:46:56.411Z,89.77
2017-12-13T04:49:22.160Z,89.56
2017-12-13T04:51:47.900Z,89.53
2017-12-13T04:54:13.678Z,89.61
2017-12-13T04:56:39.408Z,89.47
2017-12-13T04:59:05.147Z,89.52
2017-12-13T05:01:30.920Z,89.64
2017-12-13T05:03:56.659Z,89.66
2017-12-13T05:06:22.402Z,89.67
2017-12-13T05:08:48.151Z,89.90
2017-12-13T05:11:13.903Z,90.04
2017-12-13T05:13:39.656Z,90.08
2017-12-13T05:16:05.395Z,90.03
2017-12-13T05:18:31.135Z,89.82
2017-12-13T05:20:56.888Z,89.93
2017-12-13T05:23:22.634Z,89.77
2017-12-13T05:25:48.389Z,89.97
2017-12-13T05:28:14.143Z,90.08
2017-12-13T05:30:39.927Z,90.03
2017-12-13T05:33:05.664Z,89.94
2017-12-13T05:35:31.435Z,90.10
2017-12-13T05:37:57.184Z,90.08
2017-12-13T05:40:23.063Z,90.00
2017-12-13T05:42:48.823Z,90.14
2017-12-13T05:45:14.603Z,90.06
2017-12-13T05:47:43.811Z,89.84
2017-12-13T05:50:13.347Z,89.98
2017-12-13T05:52:42.511Z,89.92
2017-12-13T05:55:08.314Z,89.90
2017-12-13T05:57:34.088Z,90.00
2017-12-13T05:59:59.824Z,90.12
2017-12-13T06:02:25.588Z,90.11
2017-12-13T06:04:51.337Z,90.04
2017-12-13T06:07:17.091Z,90.06
2017-12-13T06:09:42.832Z,90.05
2017-12-13T06:12:08.601Z,90.14
2017-12-13T06:14:34.336Z,89.99
2017-12-13T06:17:00.088Z,89.91
2017-12-13T06:19:25.828Z,90.04
2017-12-13T06:21:51.563Z,90.01
2017-12-13T06:24:17.310Z,90.14
2017-12-13T06:26:43.046Z,90.20
2017-12-13T06:29:08.795Z,90.16
2017-12-13T06:31:34.546Z,90.11
2017-12-13T06:34:00.308Z,90.21
2017-12-13T06:36:26.041Z,89.94
2017-12-13T06:38:51.804Z,90.05
2017-12-13T06:41:17.534Z,90.05
2017-12-13T06:43:43.284Z,90.00
2017-12-13T06:46:09.016Z,89.77
2017-12-13T06:48:34.758Z,89.86
2017-12-13T06:51:00.511Z,89.79
2017-12-13T06:53:26.265Z,89.86
2017-12-13T06:55:52.020Z,89.78
2017-12-13T06:58:17.792Z,89.57
2017-12-13T07:00:43.568Z,89.60
2017-12-13T07:03:09.316Z,89.87
2017-12-13T07:05:35.047Z,89.68
2017-12-13T07:08:00.781Z,89.60
2017-12-13T07:10:26.544Z,89.59
2017-12-13T07:12:52.278Z,89.27
2017-12-13T07:15:18.043Z,89.42
2017-12-13T07:17:43.788Z,89.33
2017-12-13T07:20:09.539Z,89.34
2017-12-13T07:22:35.286Z,89.15
2017-12-13T07:25:01.040Z,88.95
2017-12-13T07:27:26.788Z,89.12
2017-12-13T07:29:52.544Z,89.04
2017-12-13T07:32:18.307Z,88.78
2017-12-13T07:34:44.055Z,88.74
2017-12-13T07:37:09.804Z,88.88
2017-12-13T07:39:35.550Z,88.70
2017-12-13T07:42:01.293Z,88.56
2017-12-13T07:44:27.052Z,88.43
2017-12-13T07:46:52.795Z,88.42
2017-12-13T07:49:18.543Z,88.52
2017-12-13T07:51:44.288Z,88.28
2017-12-13T07:54:10.024Z,88.03
2017-12-13T07:56:35.784Z,87.99
2017-12-13T07:59:01.534Z,87.81
2017-12-13T08:01:27.295Z,87.75
2017-12-13T08:03:53.036Z,87.80
2017-12-13T08:06:18.807Z,87.80
2017-12-13T08:08:44.547Z,87.50
2017-12-13T08:11:10.318Z,87.50
2017-12-13T08:13:36.052Z,87.22
2017-12-13T08:16:01.808Z,87.12
2017-12-13T08:18:27.555Z,86.92
2017-12-13T08:20:53.300Z,86.91
2017-12-13T08:23:19.034Z,86.61
2017-12-13T08:25:44.775Z,86.72
2017-12-13T08:28:10.544Z,86.57
2017-12-13T08:30:36.282Z,86.43
2017-12-13T08:33:02.047Z,86.43
2017-12-13T08:35:27.784Z,86.27
2017-12-13T08:37:53.543Z,85.79
2017-12-13T08:40:19.274Z,85.99
2017-12-13T08:42:45.041Z,85.62
2017-12-13T08:45:10.771Z,85.74
2017-12-13T08:47:36.544Z,85.76
2017-12-13T08:50:02.299Z,85.11
2017-12-13T08:52:28.044Z,84.91
2017-12-13T08:54:53.788Z,84.98
2017-12-13T08:57:19.563Z,84.64
2017-12-13T08:59:45.295Z,84.38
2017-12-13T09:02:11.040Z,84.54
2017-12-13T09:04:36.807Z,83.85
2017-12-13T09:07:02.563Z,83.81
2017-12-13T09:09:28.332Z,83.80
2017-12-13T09:11:54.074Z,84.31
2017-12-13T09:14:19.821Z,84.23
2017-12-13T09:16:45.555Z,83.84
2017-12-13T09:19:11.307Z,83.43
2017-12-13T09:21:37.043Z,83.16
2017-12-13T09:24:02.803Z,83.88
2017-12-13T09:26:28.546Z,83.37
2017-12-13T09:28:54.291Z,83.21
2017-12-13T09:31:20.047Z,83.10
2017-12-13T09:33:45.812Z,82.98
2017-12-13T09:36:11.574Z,82.76
2017-12-13T09:38:37.324Z,83.21
2017-12-13T09:41:03.080Z,82.65
2017-12-13T09:43:28.872Z,82.78
2017-12-13T09:45:54.579Z,82.85
2017-12-13T09:48:20.345Z,82.71
2017-12-13T09:50:46.099Z,82.50
2017-12-13T09:53:11.831Z,82.62
2017-12-13T09:55:37.584Z,82.85
2017-12-13T09:58:03.343Z,82.56
2017-12-13T10:00:29.095Z,82.46
2017-12-13T10:02:54.840Z,82.46
2017-12-13T10:05:20.600Z,82.59
2017-12-13T10:07:46.347Z,82.58
2017-12-13T10:10:12.107Z,82.39
2017-12-13T10:12:37.871Z,82.33
2017-12-13T10:15:03.620Z,82.49
2017-12-13T10:17:29.376Z,82.64
2017-12-13T10:19:55.109Z,82.45
2017-12-13T10:22:20.862Z,82.73
2017-12-13T10:24:46.601Z,82.78
2017-12-13T10:27:12.343Z,82.49
2017-12-13T10:29:38.083Z,82.71
2017-12-13T10:32:03.851Z,82.78
2017-12-13T10:34:29.591Z,83.01
2017-12-13T10:36:55.344Z,82.94
2017-12-13T10:39:21.144Z,82.92
2017-12-13T10:41:46.905Z,83.09
2017-12-13T10:44:12.656Z,83.19
2017-12-13T10:46:38.413Z,83.14
2017-12-13T10:49:04.184Z,83.17
2017-12-13T10:51:29.952Z,83.02
2017-12-13T10:53:55.707Z,82.99
2017-12-13T10:56:21.484Z,83.18
2017-12-13T10:58:47.246Z,83.14
2017-12-13T11:01:12.991Z,83.19
2017-12-13T11:03:38.771Z,83.10
2017-12-13T11:06:04.511Z,82.22
2017-12-13T11:08:30.295Z,82.18
2017-12-13T11:10:56.038Z,82.15
2017-12-13T11:13:21.796Z,81.79
2017-12-13T11:15:47.535Z,82.02
2017-12-13T11:18:13.316Z,81.99
2017-12-13T11:20:39.067Z,81.64
2017-12-13T11:23:04.845Z,81.67
2017-12-13T11:25:30.604Z,81.48
2017-12-13T11:27:56.384Z,81.82
2017-12-13T11:30:22.116Z,81.40
2017-12-13T11:32:47.886Z,81.76
2017-12-13T11:35:13.626Z,81.91
2017-12-13T11:37:39.385Z,82.34
2017-12-13T11:40:05.146Z,82.39
2017-12-13T11:42:30.909Z,82.54
2017-12-13T11:44:56.667Z,82.29
2017-12-13T11:47:22.427Z,82.41
2017-12-13T11:49:48.199Z,82.33
2017-12-13T11:52:13.957Z,82.85
2017-12-13T11:54:39.706Z,83.47
2017-12-13T11:57:05.460Z,84.30
2017-12-13T11:59:31.242Z,84.64
2017-12-13T12:01:57.000Z,85.26
2017-12-13T12:04:22.782Z,86.11
2017-12-13T12:06:48.556Z,86.78
2017-12-13T12:09:14.306Z,87.01
2017-12-13T12:11:40.068Z,87.15
2017-12-13T12:14:05.868Z,87.39
2017-12-13T12:16:31.616Z,87.54
2017-12-13T12:18:57.383Z,87.88
2017-12-13T12:21:23.152Z,88.57
2017-12-13T12:23:48.921Z,89.20
2017-12-13T12:26:14.723Z,89.40
2017-12-13T12:28:40.508Z,89.52
2017-12-13T12:31:06.328Z,89.69
2017-12-13T12:33:32.096Z,89.75
2017-12-13T12:35:57.855Z,90.08
2017-12-13T12:38:23.617Z,90.19
2017-12-13T12:40:49.400Z,90.46
2017-12-13T12:43:15.171Z,90.69
2017-12-13T12:45:40.952Z,90.92
2017-12-13T12:48:06.691Z,91.11
2017-12-13T12:50:32.464Z,91.16
2017-12-13T12:52:58.240Z,91.28
2017-12-13T12:55:23.984Z,91.24
2017-12-13T12:57:49.784Z,91.46
2017-12-13T13:00:15.538Z,91.53
2017-12-13T13:02:41.322Z,91.65
2017-12-13T13:05:07.074Z,91.76
2017-12-13T13:07:32.833Z,91.77
2017-12-13T13:09:58.584Z,91.88
2017-12-13T13:12:24.347Z,91.99
2017-12-13T13:14:50.105Z,92.09
2017-12-13T13:17:15.870Z,92.12
2017-12-13T13:19:41.639Z,92.13
2017-12-13T13:22:07.401Z,92.12
2017-12-13T13:24:33.151Z,92.02
2017-12-13T13:26:58.927Z,91.96
2017-12-13T13:29:24.679Z,92.17
2017-12-13T13:31:50.470Z,92.34
2017-12-13T13:34:16.215Z,92.42
2017-12-13T13:36:41.976Z,92.42
2017-12-13T13:39:07.737Z,92.56
2017-12-13T13:41:33.486Z,92.62
2017-12-13T13:43:59.252Z,92.59
2017-12-13T13:46:24.990Z,92.53
2017-12-13T13:48:50.755Z,92.62
2017-12-13T13:51:16.500Z,92.64
2017-12-13T13:53:42.267Z,92.77
2017-12-13T13:56:08.003Z,92.85
2017-12-13T13:58:33.777Z,92.87
2017-12-13T14:00:59.516Z,92.97
2017-12-13T14:03:25.284Z,92.86
2017-12-13T14:05:51.048Z,92.95
2017-12-13T14:08:16.795Z,92.97
2017-12-13T14:10:42.539Z,92.96
2017-12-13T14:13:08.295Z,92.90
2017-12-13T14:15:34.043Z,92.93
2017-12-13T14:17:59.785Z,92.90
2017-12-13T14:20:25.561Z,93.10
2017-12-13T14:22:51.340Z,93.09
2017-12-13T14:25:17.100Z,93.25
2017-12-13T14:27:42.846Z,93.33
2017-12-13T14:30:08.616Z,93.39
2017-12-13T14:32:34.375Z,93.31
2017-12-13T14:35:00.126Z,93.32
2017-12-13T14:37:26.008Z,93.25
2017-12-13T14:39:51.767Z,93.32
2017-12-13T14:42:17.537Z,93.44
2017-12-13T14:44:43.300Z,93.48
2017-12-13T14:47:09.041Z,93.42
2017-12-13T14:49:34.799Z,93.38
2017-12-13T14:52:00.555Z,93.39
2017-12-13T14:54:26.322Z,93.42
2017-12-13T14:56:52.063Z,93.32
2017-12-13T14:59:17.828Z,93.21
2017-12-13T15:01:43.562Z,93.18
2017-12-13T15:04:09.343Z,93.22
2017-12-13T15:06:35.084Z,93.34
2017-12-13T15:09:00.835Z,93.32
2017-12-13T15:11:26.597Z,93.42
2017-12-13T15:13:52.340Z,93.35
2017-12-13T15:16:18.104Z,93.36
2017-12-13T15:18:43.871Z,93.36
2017-12-13T15:21:09.632Z,93.32
2017-12-13T15:23:35.403Z,93.16
2017-12-13T15:26:01.173Z,93.15
2017-12-13T15:28:26.912Z,92.85
2017-12-13T15:30:52.685Z,93.02
2017-12-13T15:33:18.456Z,93.09
2017-12-13T15:35:44.224Z,93.08
2017-12-13T15:38:09.972Z,93.19
2017-12-13T15:40:35.733Z,93.23
2017-12-13T15:43:01.484Z,93.21
2017-12-13T15:45:27.301Z,93.17
2017-12-13T15:47:53.063Z,93.18
2017-12-13T15:50:18.815Z,93.11
2017-12-13T15:52:44.600Z,93.17
2017-12-13T15:55:10.367Z,93.04
2017-12-13T15:57:36.127Z,93.00
2017-12-13T16:00:01.904Z,92.92
2017-12-13T16:02:27.682Z,93.06
2017-12-13T16:04:53.425Z,93.02
2017-12-13T16:07:19.205Z,93.07
2017-12-13T16:09:44.958Z,93.26
2017-12-13T16:12:10.721Z,93.24
2017-12-13T16:14:36.459Z,93.17
2017-12-13T16:17:02.236Z,93.12
2017-12-13T16:19:27.978Z,93.17
2017-12-13T16:21:53.782Z,93.29
2017-12-13T16:24:19.533Z,93.31
2017-12-13T16:26:45.284Z,93.35
2017-12-13T16:29:11.097Z,93.28
2017-12-13T16:31:36.862Z,93.15
2017-12-13T16:34:02.633Z,92.99
2017-12-13T16:36:28.407Z,92.74
2017-12-13T16:38:54.176Z,92.94
2017-12-13T16:41:19.962Z,93.18
2017-12-13T16:43:45.725Z,93.26
2017-12-13T16:46:11.490Z,93.26
2017-12-13T16:48:37.262Z,93.33
2017-12-13T16:51:03.028Z,93.33
2017-12-13T16:53:28.776Z,93.22
2017-12-13T16:55:54.536Z,93.18
2017-12-13T16:58:20.297Z,93.01
2017-12-13T17:00:46.055Z,92.93
2017-12-13T17:03:11.828Z,92.83
2017-12-13T17:05:37.588Z,92.71
2017-12-13T17:08:03.398Z,92.73
2017-12-13T17:10:29.156Z,92.79
2017-12-13T17:12:54.911Z,93.14
2017-12-13T17:15:20.674Z,93.22
2017-12-13T17:17:46.479Z,93.25
2017-12-13T17:20:12.252Z,93.30
2017-12-13T17:22:38.015Z,93.33
2017-12-13T17:25:03.804Z,93.43
2017-12-13T17:27:29.554Z,93.40
2017-12-13T17:29:55.320Z,93.37
2017-12-13T17:32:21.096Z,93.37
2017-12-13T17:34:46.873Z,93.35
2017-12-13T17:37:12.639Z,93.20
2017-12-13T17:39:38.395Z,93.16
2017-12-13T17:42:04.144Z,93.19
2017-12-13T17:44:29.925Z,93.33
2017-12-13T17:46:55.726Z,93.23
2017-12-13T17:49:21.517Z,93.21
2017-12-13T17:51:47.269Z,93.33
2017-12-13T17:54:13.027Z,93.26
2017-12-13T17:56:38.792Z,93.19
2017-12-13T17:59:04.530Z,93.21
2017-12-13T18:01:30.299Z,93.23
2017-12-13T18:03:56.064Z,93.20
2017-12-13T18:06:21.829Z,93.16
2017-12-13T18:08:47.591Z,93.16
2017-12-13T18:11:13.354Z,93.01
2017-12-13T18:13:39.101Z,93.16
2017-12-13T18:16:04.863Z,93.32
2017-12-13T18:18:30.613Z,93.41
2017-12-13T18:20:56.369Z,93.28
2017-12-13T18:23:22.126Z,93.37
2017-12-13T18:25:47.904Z,93.41
2017-12-13T18:28:13.704Z,93.46
2017-12-13T18:30:39.473Z,93.45
2017-12-13T18:33:05.256Z,93.35
2017-12-13T18:35:31.052Z,93.48
2017-12-13T18:37:56.820Z,93.49
2017-12-13T18:40:22.617Z,93.30
2017-12-13T18:42:48.384Z,93.29
2017-12-13T18:45:14.125Z,93.22
2017-12-13T18:47:39.886Z,93.14
2017-12-13T18:50:05.651Z,93.24
2017-12-13T18:52:31.425Z,93.33
2017-12-13T18:54:57.961Z,93.42
2017-12-13T18:57:23.728Z,93.55
2017-12-13T18:59:49.525Z,93.54
2017-12-13T19:02:15.286Z,93.53
2017-12-13T19:04:41.275Z,93.49
2017-12-13T19:07:07.040Z,93.74
2017-12-13T19:09:32.799Z,93.97
2017-12-13T19:11:58.571Z,94.04
2017-12-13T19:14:24.315Z,93.97
2017-12-13T19:16:50.052Z,94.15
2017-12-13T19:19:15.826Z,94.17
2017-12-13T19:21:41.575Z,94.01
2017-12-13T19:24:07.372Z,93.94
2017-12-13T19:26:33.529Z,94.02
2017-12-13T19:28:59.451Z,94.05
2017-12-13T19:31:25.215Z,94.07
2017-12-13T19:33:50.982Z,93.95
2017-12-13T19:36:16.736Z,93.81
2017-12-13T19:38:42.541Z,93.60
2017-12-13T19:41:08.305Z,93.58
2017-12-13T19:43:34.068Z,93.54
2017-12-13T19:45:59.817Z,93.57
2017-12-13T19:48:25.576Z,93.54
2017-12-13T19:50:51.331Z,93.62
2017-12-13T19:53:17.088Z,93.84
2017-12-13T19:55:42.852Z,94.00
2017-12-13T19:58:08.608Z,94.21
2017-12-13T20:00:34.357Z,94.06
2017-12-13T20:03:00.162Z,94.07
2017-12-13T20:05:25.934Z,94.14
2017-12-13T20:07:51.696Z,94.14
2017-12-13T20:10:17.463Z,94.00
2017-12-13T20:12:43.217Z,93.90
2017-12-13T20:15:13.891Z,93.79
2017-12-13T20:17:39.629Z,94.01
2017-12-13T20:20:05.404Z,94.02
2017-12-13T20:22:31.154Z,94.01
2017-12-13T20:24:56.912Z,94.04
2017-12-13T20:27:22.648Z,94.18
2017-12-13T20:29:48.407Z,94.17
2017-12-13T20:32:14.168Z,94.17
2017-12-13T20:34:39.938Z,93.95
2017-12-13T20:37:05.700Z,93.81
2017-12-13T20:39:31.460Z,93.80
2017-12-13T20:41:57.266Z,93.83
2017-12-13T20:44:22.984Z,93.75
2017-12-13T20:46:48.766Z,93.83
2017-12-13T20:49:14.513Z,93.93
2017-12-13T20:51:40.279Z,93.88
2017-12-13T20:54:13.172Z,93.84
2017-12-13T20:56:38.953Z,93.93
2017-12-13T20:59:04.709Z,94.07
2017-12-13T21:01:30.486Z,94.28
2017-12-13T21:03:56.250Z,94.38
2017-12-13T21:06:22.010Z,94.53
2017-12-13T21:08:47.763Z,94.50
2017-12-13T21:11:13.526Z,94.48
2017-12-13T21:13:39.276Z,94.42
2017-12-13T21:16:05.039Z,94.56
2017-12-13T21:18:30.788Z,94.65
2017-12-13T21:20:56.564Z,94.61
2017-12-13T21:23:22.369Z,94.64
2017-12-13T21:25:48.127Z,94.56
2017-12-13T21:28:13.871Z,94.57
2017-12-13T21:30:39.639Z,94.58
2017-12-13T21:33:05.403Z,94.51
2017-12-13T21:35:31.198Z,94.50
2017-12-13T21:37:56.981Z,94.47
2017-12-13T21:40:22.867Z,94.50
2017-12-13T21:42:48.680Z,94.37
2017-12-13T21:45:14.431Z,94.21
2017-12-13T21:47:40.186Z,94.23
2017-12-13T21:50:05.927Z,94.27
2017-12-13T21:52:31.692Z,94.21
2017-12-13T21:54:57.451Z,94.23
2017-12-13T21:57:23.229Z,94.24
2017-12-13T21:59:49.004Z,94.34
2017-12-13T22:02:14.763Z,94.34
2017-12-13T22:04:40.530Z,94.38
2017-12-13T22:07:06.292Z,94.41
2017-12-13T22:09:32.058Z,94.36
2017-12-13T22:12:04.619Z,94.37
2017-12-13T22:14:30.373Z,94.33
2017-12-13T22:16:56.131Z,94.46
2017-12-13T22:19:21.875Z,94.41
2017-12-13T22:21:47.642Z,94.27
2017-12-13T22:24:13.397Z,94.29
2017-12-13T22:26:39.223Z,94.18
2017-12-13T22:29:04.953Z,94.18
2017-12-13T22:31:30.699Z,94.24
2017-12-13T22:33:56.466Z,94.17
2017-12-13T22:36:22.209Z,94.24
2017-12-13T22:38:47.984Z,94.22
2017-12-13T22:41:13.748Z,94.27
2017-12-13T22:43:39.534Z,94.27
2017-12-13T22:46:05.298Z,94.28
2017-12-13T22:48:31.061Z,94.29
2017-12-13T22:50:56.826Z,94.27
2017-12-13T22:53:22.595Z,94.29
2017-12-13T22:55:55.400Z,94.11
2017-12-13T22:58:21.169Z,94.17
2017-12-13T23:00:49.981Z,94.31
2017-12-13T23:03:15.753Z,94.18
2017-12-13T23:05:41.517Z,94.24
2017-12-13T23:08:07.317Z,94.25
2017-12-13T23:10:33.063Z,94.34
2017-12-13T23:12:58.821Z,94.18
2017-12-13T23:15:24.590Z,94.23
2017-12-13T23:17:50.343Z,94.35
2017-12-13T23:20:16.113Z,94.24
2017-12-13T23:22:41.867Z,94.27
2017-12-13T23:25:07.641Z,94.33
2017-12-13T23:27:33.411Z,94.37
2017-12-13T23:29:59.167Z,94.43
2017-12-13T23:32:24.927Z,94.48
2017-12-13T23:34:50.694Z,94.32
2017-12-13T23:37:16.444Z,94.27
2017-12-13T23:39:42.299Z,94.20
2017-12-13T23:42:08.066Z,94.21
2017-12-13T23:44:33.827Z,94.20
2017-12-13T23:46:59.594Z,94.27
2017-12-13T23:49:25.384Z,94.22
2017-12-13T23:51:51.127Z,93.98
2017-12-13T23:54:16.908Z,93.98
2017-12-13T23:56:42.677Z,94.03
2017-12-13T23:59:08.438Z,94.04
